Time;durP1;ratioP1;P1;durP2;ratioP2;P2;SDS_P1;SDS_P2;PMS_P1;PMS_P2;Temp;Humidity;BMP_temperature;BMP_pressure;BME280_temperature;BME280_humidity;BME280_pressure;Samples;Min_cycle;Max_cycle;Signal;HPM_P1;HPM_P2
2022/10/20 00:01:24;;;;;;;9.17;4.87;;;;;;;;;;4959044;28;20650;-45
2022/10/20 00:03:51;;;;;;;8.93;4.20;;;;;;;;;;4959165;28;20290;-45
2022/10/20 00:06:24;;;;;;;9.87;4.30;;;;;;;;;;4959348;28;20502;-45
2022/10/20 00:08:51;;;;;;;10.20;4.57;;;;;;;;;;4959417;28;20529;-45
2022/10/20 00:11:20;;;;;;;10.87;4.60;;;;;;;;;;4959249;28;20211;-45
2022/10/20 00:13:50;;;;;;;10.07;4.43;;;;;;;;;;4958109;29;20278;-45
2022/10/20 00:16:18;;;;;;;7.87;4.23;;;;;;;;;;4959590;28;20216;-45
2022/10/20 00:18:44;;;;;;;8.50;4.43;;;;;;;;;;4959317;28;20288;-45
2022/10/20 00:21:18;;;;;;;12.57;5.30;;;;;;;;;;4958967;28;20214;-45
2022/10/20 00:23:45;;;;;;;13.90;5.40;;;;;;;;;;4959128;28;20211;-46
2022/10/20 00:26:23;;;;;;;19.07;6.40;;;;;;;;;;4958810;28;20211;-45
2022/10/20 00:28:51;;;;;;;12.10;6.57;;;;;;;;;;4959234;28;20200;-45
2022/10/20 00:31:19;;;;;;;12.07;5.20;;;;;;;;;;4958896;29;20216;-46
2022/10/20 00:33:46;;;;;;;14.50;5.50;;;;;;;;;;4958845;28;20558;-45
2022/10/20 00:36:16;;;;;;;11.70;5.63;;;;;;;;;;4958877;28;20223;-45
2022/10/20 00:38:43;;;;;;;10.73;5.37;;;;;;;;;;4958690;28;20587;-45
2022/10/20 00:41:15;;;;;;;10.77;4.77;;;;;;;;;;4958450;28;20215;-45
2022/10/20 00:43:54;;;;;;;9.13;5.13;;;;;;;;;;4958646;28;20255;-45
2022/10/20 00:46:32;;;;;;;7.67;4.73;;;;;;;;;;4958751;28;20250;-45
2022/10/20 00:49:07;;;;;;;10.67;4.93;;;;;;;;;;4957820;29;20285;-45
2022/10/20 00:51:34;;;;;;;19.10;5.70;;;;;;;;;;4957761;29;20203;-45
2022/10/20 00:54:07;;;;;;;11.30;5.20;;;;;;;;;;4958966;28;20199;-45
2022/10/20 00:56:36;;;;;;;10.50;5.00;;;;;;;;;;4958556;28;20218;-45
2022/10/20 00:59:03;;;;;;;8.90;4.60;;;;;;;;;;4956551;28;20203;-45
2022/10/20 01:01:30;;;;;;;10.53;5.23;;;;;;;;;;4957683;29;20218;-45
2022/10/20 01:03:58;;;;;;;10.60;4.80;;;;;;;;;;4958058;28;20258;-45
2022/10/20 01:06:25;;;;;;;8.47;5.00;;;;;;;;;;4957115;29;20639;-45
2022/10/20 01:08:52;;;;;;;11.83;4.97;;;;;;;;;;4957720;29;20207;-45
2022/10/20 01:11:23;;;;;;;10.93;5.40;;;;;;;;;;4958365;28;20208;-44
2022/10/20 01:14:03;;;;;;;8.10;5.10;;;;;;;;;;4957783;28;20286;-45
2022/10/20 01:16:42;;;;;;;7.23;4.77;;;;;;;;;;4958727;28;20188;-45
2022/10/20 01:19:32;;;;;;;9.60;5.80;;;;;;;;;;4957904;29;20211;-45
2022/10/20 01:22:29;;;;;;;12.17;5.17;;;;;;;;;;4958162;28;20292;-45
2022/10/20 01:25:47;;;;;;;8.07;5.13;;;;;;;;;;4957167;29;20231;-46
2022/10/20 01:28:26;;;;;;;10.73;5.60;;;;;;;;;;4941393;28;20212;-45
2022/10/20 01:30:58;;;;;;;10.17;5.73;;;;;;;;;;4957992;28;20233;-45
2022/10/20 01:33:40;;;;;;;16.10;6.23;;;;;;;;;;4957795;28;20223;-45
2022/10/20 01:36:13;;;;;;;10.10;6.10;;;;;;;;;;4957080;29;20294;-44
2022/10/20 01:38:50;;;;;;;9.40;5.73;;;;;;;;;;4956925;29;20530;-45
2022/10/20 01:41:23;;;;;;;13.47;6.50;;;;;;;;;;4957024;29;20286;-45
2022/10/20 01:43:51;;;;;;;13.70;6.43;;;;;;;;;;4956478;29;20635;-45
2022/10/20 01:46:21;;;;;;;10.97;6.77;;;;;;;;;;4957886;29;20200;-45
2022/10/20 01:48:48;;;;;;;11.17;7.10;;;;;;;;;;4956558;29;20199;-45
2022/10/20 01:51:15;;;;;;;16.13;7.77;;;;;;;;;;4956581;29;20214;-45
2022/10/20 01:53:42;;;;;;;12.53;7.10;;;;;;;;;;4957299;28;20215;-45
2022/10/20 01:56:15;;;;;;;12.23;7.03;;;;;;;;;;4957378;28;20239;-44
2022/10/20 01:59:10;;;;;;;14.40;7.67;;;;;;;;;;4957168;28;20204;-45
2022/10/20 02:02:03;;;;;;;14.80;7.50;;;;;;;;;;4957324;28;20227;-45
2022/10/20 02:05:10;;;;;;;14.53;8.00;;;;;;;;;;4956142;29;20629;-44
2022/10/20 02:07:38;;;;;;;11.57;7.20;;;;;;;;;;4949987;29;20222;-45
2022/10/20 02:10:28;;;;;;;17.40;7.60;;;;;;;;;;4956832;28;20207;-45
2022/10/20 02:12:58;;;;;;;16.43;8.70;;;;;;;;;;4956103;29;20615;-44
2022/10/20 02:15:27;;;;;;;15.73;7.53;;;;;;;;;;4957286;28;20210;-45
2022/10/20 02:18:00;;;;;;;16.60;8.50;;;;;;;;;;4957316;28;20207;-45
2022/10/20 02:20:28;;;;;;;16.67;8.60;;;;;;;;;;4956206;29;20204;-44
2022/10/20 02:22:56;;;;;;;17.70;10.77;;;;;;;;;;4956652;28;20598;-44
2022/10/20 02:25:25;;;;;;;16.50;8.77;;;;;;;;;;4957033;28;20558;-45
2022/10/20 02:27:52;;;;;;;16.17;10.17;;;;;;;;;;4956067;29;20253;-45
2022/10/20 02:30:20;;;;;;;20.80;11.73;;;;;;;;;;4955828;29;20218;-45
2022/10/20 02:32:49;;;;;;;31.00;14.70;;;;;;;;;;4957124;28;20242;-45
2022/10/20 02:35:18;;;;;;;29.80;15.53;;;;;;;;;;4956111;29;20215;-47
2022/10/20 02:37:45;;;;;;;39.00;16.07;;;;;;;;;;4956585;29;20208;-45
2022/10/20 02:40:13;;;;;;;32.53;14.97;;;;;;;;;;4956858;28;20203;-45
2022/10/20 02:42:42;;;;;;;43.70;16.53;;;;;;;;;;4956467;28;20722;-45
2022/10/20 02:45:09;;;;;;;43.67;15.93;;;;;;;;;;4956398;28;20571;-45
2022/10/20 02:47:36;;;;;;;40.07;16.47;;;;;;;;;;4956647;28;20270;-45
2022/10/20 02:50:05;;;;;;;71.03;17.70;;;;;;;;;;4956420;28;20590;-45
2022/10/20 02:52:32;;;;;;;61.80;18.33;;;;;;;;;;4957246;28;20623;-45
2022/10/20 02:54:59;;;;;;;47.37;18.47;;;;;;;;;;4956350;28;20687;-45
2022/10/20 02:57:26;;;;;;;78.50;19.93;;;;;;;;;;4956633;28;20210;-45
2022/10/20 02:59:53;;;;;;;82.67;18.83;;;;;;;;;;4956342;28;20215;-45
2022/10/20 03:02:20;;;;;;;66.07;18.23;;;;;;;;;;4956389;28;20210;-44
2022/10/20 03:04:47;;;;;;;58.27;20.83;;;;;;;;;;4956152;28;20237;-45
2022/10/20 03:07:14;;;;;;;76.17;19.93;;;;;;;;;;4956676;28;20204;-44
2022/10/20 03:09:41;;;;;;;88.57;20.37;;;;;;;;;;4956901;28;20203;-45
2022/10/20 03:12:08;;;;;;;87.90;21.20;;;;;;;;;;4956523;28;20200;-45
2022/10/20 03:14:35;;;;;;;78.17;21.53;;;;;;;;;;4956473;28;20218;-45
2022/10/20 03:17:01;;;;;;;83.20;22.03;;;;;;;;;;4956131;28;20550;-45
2022/10/20 03:19:29;;;;;;;67.03;20.33;;;;;;;;;;4956589;28;20594;-45
2022/10/20 03:21:55;;;;;;;68.50;22.07;;;;;;;;;;4956646;28;20217;-45
2022/10/20 03:24:22;;;;;;;61.57;20.43;;;;;;;;;;4960050;28;20218;-45
2022/10/20 03:26:49;;;;;;;54.27;20.83;;;;;;;;;;4960090;28;20199;-45
2022/10/20 03:29:16;;;;;;;68.23;21.47;;;;;;;;;;4960039;28;20218;-45
2022/10/20 03:31:43;;;;;;;53.87;20.53;;;;;;;;;;4960058;28;20203;-46
2022/10/20 03:34:11;;;;;;;50.30;19.80;;;;;;;;;;4959981;28;20270;-45
2022/10/20 03:36:38;;;;;;;80.47;23.83;;;;;;;;;;4959745;28;20579;-45
2022/10/20 03:39:05;;;;;;;45.90;20.43;;;;;;;;;;4963052;28;20211;-46
2022/10/20 03:41:32;;;;;;;61.47;19.07;;;;;;;;;;4966973;28;20294;-45
2022/10/20 03:43:59;;;;;;;54.87;20.23;;;;;;;;;;4966120;28;20208;-45
2022/10/20 03:46:26;;;;;;;56.13;18.43;;;;;;;;;;4959575;29;20236;-45
2022/10/20 03:48:53;;;;;;;51.37;18.63;;;;;;;;;;4958800;28;20208;-45
2022/10/20 03:51:20;;;;;;;54.07;18.73;;;;;;;;;;4959643;28;20208;-45
2022/10/20 03:53:47;;;;;;;56.30;18.83;;;;;;;;;;4958417;29;20227;-45
2022/10/20 03:56:18;;;;;;;46.07;17.23;;;;;;;;;;4959340;29;20359;-45
2022/10/20 03:58:46;;;;;;;58.93;16.73;;;;;;;;;;4959246;29;20204;-46
2022/10/20 04:01:18;;;;;;;64.57;17.83;;;;;;;;;;4962889;28;20246;-46
2022/10/20 04:03:45;;;;;;;58.27;17.83;;;;;;;;;;4954783;28;20239;-45
2022/10/20 04:06:14;;;;;;;67.07;17.30;;;;;;;;;;4958394;28;20330;-46
2022/10/20 04:08:41;;;;;;;49.73;17.57;;;;;;;;;;4958212;28;20235;-47
2022/10/20 04:11:08;;;;;;;49.00;18.43;;;;;;;;;;4958346;29;20231;-45
2022/10/20 04:13:35;;;;;;;42.10;16.90;;;;;;;;;;4957882;28;20224;-45
2022/10/20 04:16:02;;;;;;;54.50;18.77;;;;;;;;;;4946394;29;20231;-45
2022/10/20 04:18:30;;;;;;;71.67;18.10;;;;;;;;;;4952146;28;20670;-49
2022/10/20 04:20:57;;;;;;;60.00;18.67;;;;;;;;;;4951478;28;20222;-47
2022/10/20 04:23:25;;;;;;;43.23;16.57;;;;;;;;;;4950254;29;20229;-46
2022/10/20 04:25:51;;;;;;;73.43;18.83;;;;;;;;;;4957494;28;20666;-48
2022/10/20 04:28:19;;;;;;;82.53;21.70;;;;;;;;;;4956066;28;20219;-47
2022/10/20 04:30:47;;;;;;;71.47;20.30;;;;;;;;;;4957232;28;20262;-46
2022/10/20 04:33:15;;;;;;;90.23;20.83;;;;;;;;;;4957161;28;20283;-46
2022/10/20 04:35:42;;;;;;;82.63;22.37;;;;;;;;;;4957550;28;20618;-47
2022/10/20 04:38:09;;;;;;;79.10;19.37;;;;;;;;;;4957833;29;20310;-46
2022/10/20 04:40:36;;;;;;;111.53;22.40;;;;;;;;;;4957666;28;20231;-46
2022/10/20 04:43:03;;;;;;;106.20;20.60;;;;;;;;;;4957963;29;20559;-46
2022/10/20 04:45:30;;;;;;;118.83;21.93;;;;;;;;;;4955861;28;20247;-47
2022/10/20 04:47:57;;;;;;;157.77;23.97;;;;;;;;;;4956613;29;20258;-46
2022/10/20 04:50:24;;;;;;;113.93;22.30;;;;;;;;;;4956470;28;20318;-47
2022/10/20 04:53:06;;;;;;;128.93;24.40;;;;;;;;;;4956908;28;20227;-46
2022/10/20 04:55:34;;;;;;;108.50;21.73;;;;;;;;;;4954777;28;20665;-46
2022/10/20 04:58:01;;;;;;;117.00;23.80;;;;;;;;;;4958349;28;20292;-48
2022/10/20 05:00:28;;;;;;;130.50;22.77;;;;;;;;;;4963864;28;20262;-46
2022/10/20 05:02:55;;;;;;;154.33;23.70;;;;;;;;;;4958851;28;20243;-50
2022/10/20 05:05:22;;;;;;;137.87;22.67;;;;;;;;;;4965273;28;20725;-47
2022/10/20 05:07:49;;;;;;;100.90;19.03;;;;;;;;;;4965946;28;20219;-48
2022/10/20 05:10:18;;;;;;;84.80;19.23;;;;;;;;;;4961663;28;20318;-47
2022/10/20 05:12:45;;;;;;;92.07;22.63;;;;;;;;;;4961820;28;20227;-46
2022/10/20 05:15:12;;;;;;;112.57;23.97;;;;;;;;;;4962992;28;20546;-47
2022/10/20 05:17:39;;;;;;;97.80;24.07;;;;;;;;;;4965891;28;20223;-46
2022/10/20 05:20:06;;;;;;;89.57;22.53;;;;;;;;;;4975619;28;20290;-46
2022/10/20 05:22:33;;;;;;;121.77;22.53;;;;;;;;;;4974326;28;20581;-46
2022/10/20 05:25:01;;;;;;;71.73;18.10;;;;;;;;;;4976414;28;20231;-46
2022/10/20 05:27:48;;;;;;;59.30;17.93;;;;;;;;;;4975605;28;20238;-47
2022/10/20 05:30:14;;;;;;;54.33;17.53;;;;;;;;;;4975147;28;20202;-46
2022/10/20 05:32:42;;;;;;;69.23;18.33;;;;;;;;;;4975772;28;20234;-46
2022/10/20 05:35:08;;;;;;;61.13;16.70;;;;;;;;;;4975346;28;20217;-46
2022/10/20 05:37:35;;;;;;;108.43;19.87;;;;;;;;;;4975851;28;20653;-46
2022/10/20 05:40:05;;;;;;;69.73;16.30;;;;;;;;;;4976987;28;20242;-47
2022/10/20 05:42:32;;;;;;;39.63;14.83;;;;;;;;;;4976623;28;20218;-46
2022/10/20 05:44:59;;;;;;;58.60;15.93;;;;;;;;;;4975972;28;20602;-46
2022/10/20 05:47:27;;;;;;;57.60;14.13;;;;;;;;;;4975569;28;20214;-46
2022/10/20 05:49:53;;;;;;;51.17;15.53;;;;;;;;;;4976819;28;20570;-47
2022/10/20 05:52:21;;;;;;;62.97;18.07;;;;;;;;;;4976544;28;20641;-46
2022/10/20 05:54:47;;;;;;;63.67;17.20;;;;;;;;;;4976434;28;20554;-46
2022/10/20 05:57:15;;;;;;;97.47;20.90;;;;;;;;;;4976411;28;20750;-46
2022/10/20 05:59:41;;;;;;;52.17;15.67;;;;;;;;;;4976684;28;20211;-46
2022/10/20 06:02:10;;;;;;;63.60;19.83;;;;;;;;;;4976977;28;20206;-46
2022/10/20 06:04:37;;;;;;;80.93;20.33;;;;;;;;;;4976766;28;20262;-46
2022/10/20 06:07:05;;;;;;;57.00;16.67;;;;;;;;;;4975038;28;20226;-47
2022/10/20 06:09:31;;;;;;;54.43;18.70;;;;;;;;;;4974835;28;20206;-47
2022/10/20 06:11:59;;;;;;;60.17;17.63;;;;;;;;;;4975339;28;20277;-47
2022/10/20 06:14:26;;;;;;;56.90;18.17;;;;;;;;;;4975274;28;20230;-47
2022/10/20 06:16:54;;;;;;;42.33;17.80;;;;;;;;;;4976071;28;20507;-46
2022/10/20 06:19:22;;;;;;;45.87;16.33;;;;;;;;;;4975847;28;20642;-47
2022/10/20 06:21:49;;;;;;;40.03;16.33;;;;;;;;;;4975227;28;20203;-47
2022/10/20 06:24:17;;;;;;;55.10;16.83;;;;;;;;;;4974905;28;20206;-47
2022/10/20 06:26:44;;;;;;;55.37;16.17;;;;;;;;;;4976339;28;20222;-46
2022/10/20 06:29:13;;;;;;;61.13;16.17;;;;;;;;;;4976351;28;20286;-47
2022/10/20 06:31:46;;;;;;;60.27;17.20;;;;;;;;;;4975776;28;20265;-46
2022/10/20 06:34:15;;;;;;;59.37;17.77;;;;;;;;;;4974967;28;20629;-46
2022/10/20 06:36:44;;;;;;;56.03;18.43;;;;;;;;;;4974060;28;20214;-47
2022/10/20 06:39:20;;;;;;;75.40;18.63;;;;;;;;;;4974670;28;20349;-47
2022/10/20 06:41:52;;;;;;;45.90;17.43;;;;;;;;;;4976491;28;20253;-46
2022/10/20 06:44:22;;;;;;;53.40;19.43;;;;;;;;;;4975480;28;20233;-46
2022/10/20 06:46:51;;;;;;;53.63;20.20;;;;;;;;;;4975716;28;20266;-46
2022/10/20 06:49:18;;;;;;;49.00;17.90;;;;;;;;;;4975331;28;20249;-46
2022/10/20 06:51:46;;;;;;;51.20;19.47;;;;;;;;;;4975181;28;20243;-47
2022/10/20 06:54:13;;;;;;;43.40;17.43;;;;;;;;;;4974069;28;20285;-46
2022/10/20 06:56:40;;;;;;;40.33;17.80;;;;;;;;;;4975545;28;20215;-46
2022/10/20 06:59:07;;;;;;;34.77;16.77;;;;;;;;;;4979404;28;20212;-47
2022/10/20 07:01:35;;;;;;;42.77;17.87;;;;;;;;;;4979852;28;20601;-47
2022/10/20 07:04:07;;;;;;;36.23;18.67;;;;;;;;;;4979677;28;20262;-47
2022/10/20 07:06:39;;;;;;;33.13;16.03;;;;;;;;;;4979094;28;20226;-47
2022/10/20 07:09:07;;;;;;;39.33;16.77;;;;;;;;;;4979974;28;20289;-47
2022/10/20 07:11:35;;;;;;;25.77;14.50;;;;;;;;;;4979036;28;20210;-47
2022/10/20 07:14:02;;;;;;;28.23;15.17;;;;;;;;;;4979038;28;20202;-47
2022/10/20 07:16:31;;;;;;;26.20;13.63;;;;;;;;;;4977897;28;20269;-47
2022/10/20 07:18:59;;;;;;;21.10;13.03;;;;;;;;;;4978454;28;20217;-47
2022/10/20 07:21:27;;;;;;;24.20;14.63;;;;;;;;;;4978651;28;20237;-47
2022/10/20 07:24:03;;;;;;;22.37;14.00;;;;;;;;;;4979146;28;20251;-47
2022/10/20 07:26:33;;;;;;;25.77;14.53;;;;;;;;;;4979266;28;20241;-48
2022/10/20 07:29:01;;;;;;;22.33;12.43;;;;;;;;;;4979101;28;20532;-47
2022/10/20 07:31:37;;;;;;;23.43;13.57;;;;;;;;;;4979000;28;20214;-46
2022/10/20 07:34:06;;;;;;;23.27;13.37;;;;;;;;;;4979086;28;20222;-46
2022/10/20 07:36:50;;;;;;;20.63;14.17;;;;;;;;;;4977915;28;20206;-47
2022/10/20 07:39:17;;;;;;;22.97;13.60;;;;;;;;;;4979384;28;20211;-47
2022/10/20 07:41:46;;;;;;;21.57;13.90;;;;;;;;;;4979039;28;20210;-47
2022/10/20 07:44:13;;;;;;;21.77;12.73;;;;;;;;;;4978904;28;20213;-47
2022/10/20 07:46:40;;;;;;;21.27;12.97;;;;;;;;;;4979229;28;20227;-47
2022/10/20 07:49:07;;;;;;;22.97;14.67;;;;;;;;;;4978395;28;20268;-47
2022/10/20 07:51:54;;;;;;;22.77;14.47;;;;;;;;;;4978749;28;20211;-47
2022/10/20 07:54:21;;;;;;;21.07;13.43;;;;;;;;;;4978938;28;20207;-47
2022/10/20 07:56:48;;;;;;;21.83;15.53;;;;;;;;;;4978319;28;20213;-47
2022/10/20 07:59:15;;;;;;;20.03;14.57;;;;;;;;;;4976720;28;20210;-47
2022/10/20 08:01:42;;;;;;;22.10;15.00;;;;;;;;;;4976683;28;20502;-47
2022/10/20 08:04:10;;;;;;;21.23;15.30;;;;;;;;;;4976680;28;20337;-47
2022/10/20 08:06:37;;;;;;;22.53;13.97;;;;;;;;;;4977963;28;20230;-47
2022/10/20 08:09:06;;;;;;;27.90;18.80;;;;;;;;;;4978107;28;20203;-47
2022/10/20 08:11:33;;;;;;;26.00;17.33;;;;;;;;;;4978412;28;20206;-47
2022/10/20 08:14:00;;;;;;;27.63;17.77;;;;;;;;;;4978454;28;20199;-46
2022/10/20 08:16:29;;;;;;;24.73;16.40;;;;;;;;;;4978261;28;20215;-48
2022/10/20 08:18:56;;;;;;;20.73;13.47;;;;;;;;;;4978430;28;20203;-47
2022/10/20 08:21:35;;;;;;;21.00;13.87;;;;;;;;;;4978177;28;20206;-47
2022/10/20 08:24:02;;;;;;;27.17;17.13;;;;;;;;;;4978450;28;20520;-47
2022/10/20 08:26:31;;;;;;;28.03;17.83;;;;;;;;;;4978040;28;20243;-48
2022/10/20 08:28:58;;;;;;;23.03;14.80;;;;;;;;;;4977082;28;20202;-47
2022/10/20 08:31:25;;;;;;;21.57;15.20;;;;;;;;;;4978166;28;20203;-47
2022/10/20 08:33:52;;;;;;;18.40;13.30;;;;;;;;;;4978060;28;20654;-47
2022/10/20 08:36:20;;;;;;;20.03;14.00;;;;;;;;;;4978311;28;20198;-47
2022/10/20 08:38:47;;;;;;;19.03;13.70;;;;;;;;;;4978012;28;20203;-49
2022/10/20 08:41:21;;;;;;;18.40;12.73;;;;;;;;;;4978214;28;20579;-47
2022/10/20 08:43:49;;;;;;;18.77;12.47;;;;;;;;;;4977402;28;20593;-47
2022/10/20 08:46:18;;;;;;;16.77;12.83;;;;;;;;;;4976212;28;20234;-47
2022/10/20 08:48:46;;;;;;;15.77;11.03;;;;;;;;;;4977497;28;20202;-47
2022/10/20 08:51:22;;;;;;;15.90;12.63;;;;;;;;;;4977818;28;20221;-47
2022/10/20 08:53:51;;;;;;;19.73;14.57;;;;;;;;;;4976203;28;20272;-47
2022/10/20 08:56:28;;;;;;;17.40;11.67;;;;;;;;;;4977417;28;20207;-47
2022/10/20 08:58:55;;;;;;;15.47;11.33;;;;;;;;;;4976101;28;20210;-47
2022/10/20 09:01:25;;;;;;;16.43;12.20;;;;;;;;;;4976300;28;20219;-51
2022/10/20 09:03:56;;;;;;;18.17;11.87;;;;;;;;;;4977169;28;20235;-47
2022/10/20 09:06:24;;;;;;;15.73;10.07;;;;;;;;;;4976160;28;20253;-47
2022/10/20 09:08:51;;;;;;;15.47;10.37;;;;;;;;;;4977238;28;20214;-47
2022/10/20 09:11:26;;;;;;;14.63;10.90;;;;;;;;;;4975120;28;20199;-47
2022/10/20 09:13:53;;;;;;;17.50;10.57;;;;;;;;;;4976133;28;20288;-48
2022/10/20 09:16:29;;;;;;;17.93;11.77;;;;;;;;;;4976603;28;20289;-47
2022/10/20 09:19:17;;;;;;;19.00;13.40;;;;;;;;;;4975878;28;20214;-47
2022/10/20 09:21:49;;;;;;;19.03;12.40;;;;;;;;;;4975564;28;20202;-48
2022/10/20 09:24:17;;;;;;;20.00;12.43;;;;;;;;;;4976309;28;20179;-48
2022/10/20 09:26:48;;;;;;;15.53;10.60;;;;;;;;;;4976329;28;20245;-47
2022/10/20 09:29:36;;;;;;;13.33;9.80;;;;;;;;;;4977217;28;20253;-47
2022/10/20 09:32:16;;;;;;;15.40;11.40;;;;;;;;;;4976513;28;20597;-47
2022/10/20 09:35:12;;;;;;;13.50;9.97;;;;;;;;;;4977030;28;20277;-47
2022/10/20 09:37:39;;;;;;;11.87;8.30;;;;;;;;;;4975963;28;20194;-48
2022/10/20 09:40:13;;;;;;;13.30;8.23;;;;;;;;;;4976619;28;20201;-47
2022/10/20 09:42:48;;;;;;;12.97;9.10;;;;;;;;;;4977933;28;20198;-47
2022/10/20 09:45:20;;;;;;;13.90;10.23;;;;;;;;;;4975911;28;20704;-47
2022/10/20 09:47:51;;;;;;;15.37;9.33;;;;;;;;;;4976213;28;20211;-47
2022/10/20 09:50:33;;;;;;;10.83;7.97;;;;;;;;;;4976512;28;20720;-48
2022/10/20 09:53:03;;;;;;;10.23;8.00;;;;;;;;;;4975838;28;20216;-47
2022/10/20 09:55:34;;;;;;;15.87;10.97;;;;;;;;;;4975801;28;20705;-47
2022/10/20 09:58:03;;;;;;;14.37;10.50;;;;;;;;;;4976352;28;20210;-47
2022/10/20 10:00:32;;;;;;;12.53;9.00;;;;;;;;;;4974727;28;20645;-47
2022/10/20 10:03:07;;;;;;;13.17;9.17;;;;;;;;;;4975344;28;20658;-48
2022/10/20 10:05:34;;;;;;;11.53;8.53;;;;;;;;;;4976114;28;20199;-47
2022/10/20 10:08:02;;;;;;;14.83;8.77;;;;;;;;;;4976238;28;20235;-47
2022/10/20 10:10:30;;;;;;;11.50;7.73;;;;;;;;;;4976543;28;20309;-48
2022/10/20 10:13:03;;;;;;;9.90;7.87;;;;;;;;;;4975677;28;20209;-47
2022/10/20 10:15:36;;;;;;;11.90;7.57;;;;;;;;;;4975697;28;20202;-48
2022/10/20 10:18:20;;;;;;;11.17;8.37;;;;;;;;;;4974977;28;20210;-47
2022/10/20 10:20:56;;;;;;;12.47;8.30;;;;;;;;;;4975647;28;20254;-48
2022/10/20 10:23:27;;;;;;;12.30;9.03;;;;;;;;;;4976128;28;20218;-48
2022/10/20 10:25:54;;;;;;;11.13;7.50;;;;;;;;;;4976041;28;20306;-48
2022/10/20 10:28:39;;;;;;;9.90;7.17;;;;;;;;;;4975882;28;20222;-47
2022/10/20 10:31:19;;;;;;;8.23;6.20;;;;;;;;;;4975193;28;20282;-47
2022/10/20 10:33:49;;;;;;;7.15;5.60;;;;;;;;;;4976288;28;20214;-47
2022/10/20 10:36:35;;;;;;;7.13;5.90;;;;;;;;;;4975178;28;20230;-47
2022/10/20 10:39:11;;;;;;;7.30;5.10;;;;;;;;;;4975390;28;20211;-47
2022/10/20 10:41:56;;;;;;;8.27;5.00;;;;;;;;;;4975038;28;20213;-47
2022/10/20 10:44:30;;;;;;;6.93;4.80;;;;;;;;;;4975545;28;20195;-47
2022/10/20 10:47:03;;;;;;;7.53;5.60;;;;;;;;;;4974569;28;20207;-47
2022/10/20 10:49:37;;;;;;;7.17;5.43;;;;;;;;;;4975193;28;20856;-47
2022/10/20 10:52:32;;;;;;;11.33;5.90;;;;;;;;;;4974442;28;20539;-47
2022/10/20 10:55:12;;;;;;;8.30;4.00;;;;;;;;;;4975468;28;20214;-46
2022/10/20 10:58:08;;;;;;;4.38;3.75;;;;;;;;;;4974858;28;20657;-48
2022/10/20 11:00:38;;;;;;;6.67;3.80;;;;;;;;;;4975373;28;20214;-47
2022/10/20 11:03:17;;;;;;;6.27;4.07;;;;;;;;;;4974161;28;20541;-47
2022/10/20 11:05:56;;;;;;;7.10;4.37;;;;;;;;;;4973424;28;20195;-47
2022/10/20 11:09:04;;;;;;;4.60;4.03;;;;;;;;;;4973488;28;20562;-49
2022/10/20 11:11:52;;;;;;;4.75;3.47;;;;;;;;;;4973940;28;20641;-48
2022/10/20 11:14:44;;;;;;;8.95;4.80;;;;;;;;;;4975374;28;20206;-47
2022/10/20 11:17:36;;;;;;;8.10;5.40;;;;;;;;;;4975121;28;20203;-47
2022/10/20 11:20:32;;;;;;;4.88;3.30;;;;;;;;;;4975170;28;20226;-47
2022/10/20 11:23:33;;;;;;;5.03;3.53;;;;;;;;;;4973809;28;20575;-47
2022/10/20 11:26:22;;;;;;;4.85;3.67;;;;;;;;;;4975728;28;20491;-49
2022/10/20 11:28:57;;;;;;;5.30;3.83;;;;;;;;;;4973865;28;20206;-48
2022/10/20 11:31:25;;;;;;;6.68;4.82;;;;;;;;;;4973551;28;20199;-47
2022/10/20 11:34:02;;;;;;;7.80;5.55;;;;;;;;;;4974804;28;20195;-48
2022/10/20 11:36:33;;;;;;;9.15;4.82;;;;;;;;;;4974611;28;20243;-47
2022/10/20 11:39:03;;;;;;;8.05;5.75;;;;;;;;;;4974588;28;20209;-47
2022/10/20 11:41:44;;;;;;;6.50;5.03;;;;;;;;;;4974898;28;20203;-47
2022/10/20 11:44:20;;;;;;;6.57;4.40;;;;;;;;;;4976886;28;20229;-47
2022/10/20 11:46:55;;;;;;;7.55;3.97;;;;;;;;;;4977984;28;20226;-48
2022/10/20 11:49:22;;;;;;;6.60;4.80;;;;;;;;;;4972295;28;20199;-48
2022/10/20 11:52:11;;;;;;;4.80;3.60;;;;;;;;;;4963583;28;20614;-50
2022/10/20 11:55:03;;;;;;;5.57;4.28;;;;;;;;;;4967685;28;20228;-48
2022/10/20 11:57:42;;;;;;;7.07;4.80;;;;;;;;;;4969088;28;20198;-51
2022/10/20 12:00:21;;;;;;;6.10;3.70;;;;;;;;;;4963230;28;20202;-48
2022/10/20 12:03:00;;;;;;;3.65;2.75;;;;;;;;;;4964609;28;20235;-50
2022/10/20 12:05:46;;;;;;;3.03;2.22;;;;;;;;;;4965813;28;20262;-50
2022/10/20 12:08:28;;;;;;;3.28;2.53;;;;;;;;;;4966619;28;20218;-47
2022/10/20 12:11:18;;;;;;;3.97;2.75;;;;;;;;;;4967713;28;20198;-50
2022/10/20 12:14:10;;;;;;;3.90;2.78;;;;;;;;;;4964823;28;20207;-52
2022/10/20 12:16:52;;;;;;;4.70;2.80;;;;;;;;;;4967711;28;20187;-48
2022/10/20 12:19:32;;;;;;;6.55;2.80;;;;;;;;;;4965710;28;20187;-49
2022/10/20 12:22:20;;;;;;;5.40;3.17;;;;;;;;;;4968362;28;20203;-50
2022/10/20 12:24:49;;;;;;;5.47;3.42;;;;;;;;;;4955505;28;20626;-48
2022/10/20 12:27:22;;;;;;;4.63;3.40;;;;;;;;;;4965613;28;20223;-49
2022/10/20 12:29:54;;;;;;;5.18;3.38;;;;;;;;;;4964991;28;20641;-47
2022/10/20 12:32:36;;;;;;;5.53;3.60;;;;;;;;;;4962120;28;20199;-50
2022/10/20 12:35:10;;;;;;;4.45;3.30;;;;;;;;;;4956861;28;20226;-50
2022/10/20 12:37:38;;;;;;;5.03;3.38;;;;;;;;;;4964998;28;20237;-49
2022/10/20 12:40:10;;;;;;;3.53;2.67;;;;;;;;;;4963381;28;20229;-48
2022/10/20 12:42:38;;;;;;;4.53;3.17;;;;;;;;;;4964125;28;20285;-48
2022/10/20 12:45:20;;;;;;;3.70;2.67;;;;;;;;;;4962432;28;20223;-49
2022/10/20 12:47:55;;;;;;;4.20;3.10;;;;;;;;;;4964256;28;20226;-50
2022/10/20 12:50:29;;;;;;;4.20;2.90;;;;;;;;;;4963200;28;20612;-50
2022/10/20 12:53:07;;;;;;;3.80;2.75;;;;;;;;;;4963634;28;20223;-50
2022/10/20 12:55:36;;;;;;;5.45;2.63;;;;;;;;;;4966113;28;20238;-52
2022/10/20 12:58:17;;;;;;;5.15;3.40;;;;;;;;;;4965206;28;20228;-50
2022/10/20 13:00:46;;;;;;;4.93;2.70;;;;;;;;;;4961631;28;20222;-51
2022/10/20 13:03:46;;;;;;;4.18;2.40;;;;;;;;;;4961598;28;20676;-51
2022/10/20 13:06:23;;;;;;;2.42;2.05;;;;;;;;;;4961409;28;20298;-50
2022/10/20 13:09:02;;;;;;;5.70;2.10;;;;;;;;;;4963097;28;20327;-52
2022/10/20 13:11:43;;;;;;;4.25;2.20;;;;;;;;;;4961277;28;20242;-49
2022/10/20 13:14:30;;;;;;;3.75;2.15;;;;;;;;;;4962184;28;20215;-49
2022/10/20 13:17:00;;;;;;;4.43;2.53;;;;;;;;;;4962270;28;20219;-49
2022/10/20 13:19:46;;;;;;;3.70;2.60;;;;;;;;;;4962295;28;20588;-48
2022/10/20 13:22:39;;;;;;;4.25;2.92;;;;;;;;;;4964968;28;20677;-50
2022/10/20 13:25:15;;;;;;;3.13;2.35;;;;;;;;;;4960088;28;20226;-48
2022/10/20 13:27:42;;;;;;;4.85;2.50;;;;;;;;;;4963143;28;20666;-51
2022/10/20 13:30:13;;;;;;;5.55;2.70;;;;;;;;;;4964718;28;20601;-50
2022/10/20 13:33:18;;;;;;;5.82;2.40;;;;;;;;;;4963687;28;20219;-50
2022/10/20 13:36:15;;;;;;;5.43;2.55;;;;;;;;;;4945706;28;20220;-50
2022/10/20 13:38:50;;;;;;;5.53;3.03;;;;;;;;;;4959243;28;20298;-47
2022/10/20 13:41:42;;;;;;;4.85;2.60;;;;;;;;;;4963172;28;20240;-52
2022/10/20 13:44:23;;;;;;;3.30;2.70;;;;;;;;;;4962626;28;20227;-50
2022/10/20 13:46:56;;;;;;;7.90;2.78;;;;;;;;;;4963724;28;20567;-50
2022/10/20 13:49:33;;;;;;;4.28;2.35;;;;;;;;;;4956604;28;20219;-51
2022/10/20 13:52:10;;;;;;;3.33;2.47;;;;;;;;;;4961066;28;20219;-52
2022/10/20 13:54:38;;;;;;;3.78;2.80;;;;;;;;;;4959796;28;20229;-51
2022/10/20 13:57:05;;;;;;;3.28;2.70;;;;;;;;;;4960640;28;20234;-50
2022/10/20 13:59:33;;;;;;;5.97;3.25;;;;;;;;;;4962821;28;20223;-51
2022/10/20 14:02:22;;;;;;;3.47;2.85;;;;;;;;;;4962462;28;20227;-52
2022/10/20 14:05:04;;;;;;;6.10;2.50;;;;;;;;;;4957318;28;20223;-51
2022/10/20 14:07:38;;;;;;;3.17;2.40;;;;;;;;;;4963342;28;20235;-49
2022/10/20 14:10:06;;;;;;;3.20;2.50;;;;;;;;;;4962078;28;20281;-51
2022/10/20 14:12:34;;;;;;;4.70;3.67;;;;;;;;;;4963212;28;20219;-51
2022/10/20 14:15:03;;;;;;;5.70;2.38;;;;;;;;;;4960776;28;20579;-49
2022/10/20 14:17:30;;;;;;;3.55;2.45;;;;;;;;;;4967296;28;20227;-49
2022/10/20 14:20:19;;;;;;;4.65;2.58;;;;;;;;;;4970676;28;20223;-50
2022/10/20 14:22:47;;;;;;;6.72;2.83;;;;;;;;;;4955783;28;20234;-51
2022/10/20 14:25:14;;;;;;;4.55;2.95;;;;;;;;;;4955935;28;20223;-50
2022/10/20 14:27:42;;;;;;;6.05;3.35;;;;;;;;;;4955099;28;20243;-48
2022/10/20 14:30:14;;;;;;;5.47;3.33;;;;;;;;;;4953633;28;20281;-48
2022/10/20 14:32:42;;;;;;;5.13;3.15;;;;;;;;;;4954559;28;20234;-49
2022/10/20 14:35:25;;;;;;;26.35;12.90;;;;;;;;;;4955078;29;20227;-49
2022/10/20 14:38:01;;;;;;;5.03;3.90;;;;;;;;;;4955723;28;20235;-48
2022/10/20 14:40:32;;;;;;;7.20;4.53;;;;;;;;;;4955877;29;20246;-48
2022/10/20 14:43:05;;;;;;;7.45;3.95;;;;;;;;;;4955758;28;20234;-50
2022/10/20 14:45:33;;;;;;;7.10;3.75;;;;;;;;;;4936612;29;20322;-48
2022/10/20 14:48:00;;;;;;;18.48;8.55;;;;;;;;;;4954604;28;20246;-48
2022/10/20 14:50:34;;;;;;;6.22;3.75;;;;;;;;;;4954391;29;20318;-48
2022/10/20 14:53:29;;;;;;;7.70;3.92;;;;;;;;;;4954952;28;20226;-49
2022/10/20 14:55:59;;;;;;;5.50;2.95;;;;;;;;;;4955593;28;20227;-48
2022/10/20 14:58:36;;;;;;;5.80;3.00;;;;;;;;;;4955078;29;20693;-48